Time;durP1;ratioP1;P1;durP2;ratioP2;P2;SDS_P1;SDS_P2;PMS_P1;PMS_P2;Temp;Humidity;BMP_temperature;BMP_pressure;BME280_temperature;BME280_humidity;BME280_pressure;Samples;Min_cycle;Max_cycle;Signal;HPM_P1;HPM_P2
2020/12/27 00:00:32;;;;;;;18.67;9.65;;;-0.80;72.80;;;;;;4978809;28;20042;-66
2020/12/27 00:02:58;;;;;;;23.63;12.43;;;-0.80;72.80;;;;;;4980257;28;20038;-65
2020/12/27 00:05:23;;;;;;;21.90;11.20;;;-0.80;72.80;;;;;;4977976;28;20574;-66
2020/12/27 00:07:49;;;;;;;18.27;9.77;;;-0.80;72.60;;;;;;4979317;28;20039;-66
2020/12/27 00:10:15;;;;;;;14.77;8.32;;;-0.90;73.40;;;;;;4979574;28;20033;-66
2020/12/27 00:12:41;;;;;;;12.82;8.02;;;-0.90;72.60;;;;;;4982284;28;20043;-65
2020/12/27 00:15:06;;;;;;;13.68;8.00;;;-0.90;72.70;;;;;;4977904;28;20035;-66
2020/12/27 00:17:32;;;;;;;13.85;7.13;;;-0.80;72.70;;;;;;4979199;28;20940;-66
2020/12/27 00:19:58;;;;;;;12.75;7.32;;;-0.80;72.70;;;;;;4978550;28;20042;-66
2020/12/27 00:22:24;;;;;;;11.40;6.72;;;-0.80;72.70;;;;;;4979243;28;20442;-66
2020/12/27 00:24:49;;;;;;;11.25;6.95;;;-0.80;72.70;;;;;;4979212;28;20815;-66
2020/12/27 00:27:15;;;;;;;10.10;6.32;;;-0.80;73.30;;;;;;4978338;28;20109;-64
2020/12/27 00:29:41;;;;;;;11.13;6.22;;;-0.80;72.60;;;;;;4979044;28;20049;-66
2020/12/27 00:32:07;;;;;;;11.40;6.32;;;-0.80;72.60;;;;;;4979286;28;20038;-66
2020/12/27 00:34:33;;;;;;;10.13;6.38;;;-0.80;72.70;;;;;;4978533;28;20637;-66
2020/12/27 00:36:59;;;;;;;10.02;6.28;;;-0.80;72.70;;;;;;4978476;28;20062;-66
2020/12/27 00:39:25;;;;;;;11.65;6.80;;;-0.90;72.60;;;;;;4978787;28;20113;-66
2020/12/27 00:41:51;;;;;;;9.23;6.40;;;-0.90;72.40;;;;;;4979083;28;20031;-65
2020/12/27 00:44:18;;;;;;;9.95;6.40;;;-0.90;72.40;;;;;;4979378;28;20035;-66
2020/12/27 00:46:50;;;;;;;11.20;6.40;;;-1.00;72.30;;;;;;4977883;28;20044;-65
2020/12/27 00:49:16;;;;;;;12.68;6.68;;;-1.10;72.40;;;;;;4977315;28;20050;-66
2020/12/27 00:51:42;;;;;;;8.88;5.70;;;-1.10;72.90;;;;;;4979539;28;20518;-66
2020/12/27 00:54:08;;;;;;;13.38;6.47;;;-1.20;72.60;;;;;;4978709;28;20074;-66
2020/12/27 00:56:34;;;;;;;10.68;6.10;;;-1.20;72.70;;;;;;4978268;28;20070;-67
2020/12/27 00:59:00;;;;;;;11.00;6.45;;;-1.20;73.10;;;;;;4977727;28;20054;-66
2020/12/27 01:01:26;;;;;;;10.10;6.40;;;-1.30;73.10;;;;;;4978659;28;20049;-66
2020/12/27 01:03:51;;;;;;;11.05;6.25;;;-1.30;73.20;;;;;;4979709;28;20458;-65
2020/12/27 01:06:24;;;;;;;9.38;5.95;;;-1.20;73.30;;;;;;4979650;28;20118;-66
2020/12/27 01:08:50;;;;;;;9.43;5.88;;;-1.20;73.20;;;;;;4978592;28;20093;-66
2020/12/27 01:11:15;;;;;;;9.20;6.32;;;-1.30;73.00;;;;;;4982729;28;20454;-65
2020/12/27 01:13:41;;;;;;;13.60;7.18;;;-1.30;72.90;;;;;;4978814;28;20034;-66
2020/12/27 01:16:11;;;;;;;14.82;8.30;;;-1.30;73.10;;;;;;4979097;28;20042;-66
2020/12/27 01:18:45;;;;;;;15.10;8.18;;;-1.20;73.20;;;;;;4979059;28;20417;-66
2020/12/27 01:21:10;;;;;;;14.30;7.35;;;-1.20;73.20;;;;;;4979602;28;20113;-64
2020/12/27 01:23:36;;;;;;;11.00;6.72;;;-1.30;73.10;;;;;;4979213;28;20150;-68
2020/12/27 01:26:02;;;;;;;10.75;6.38;;;-1.20;73.10;;;;;;4979140;28;20046;-66
2020/12/27 01:28:27;;;;;;;10.25;6.05;;;-1.30;73.10;;;;;;4977779;28;20038;-66
2020/12/27 01:30:53;;;;;;;7.82;5.72;;;-1.30;73.20;;;;;;4983921;28;20027;-65
2020/12/27 01:33:18;;;;;;;11.10;6.25;;;-1.30;73.30;;;;;;4979133;28;20654;-65
2020/12/27 01:35:45;;;;;;;8.90;6.10;;;-1.40;73.40;;;;;;4979240;28;20106;-65
2020/12/27 01:38:11;;;;;;;11.20;6.40;;;-1.40;73.50;;;;;;4979134;28;20077;-64
2020/12/27 01:40:37;;;;;;;10.10;5.97;;;-1.50;73.60;;;;;;4977391;28;20093;-67
2020/12/27 01:43:03;;;;;;;9.30;6.28;;;-1.50;73.80;;;;;;4978681;28;20039;-66
2020/12/27 01:45:29;;;;;;;12.15;6.70;;;-1.50;73.90;;;;;;4979091;28;20222;-66
2020/12/27 01:47:55;;;;;;;13.25;5.82;;;-1.50;74.00;;;;;;4978221;28;20062;-66
2020/12/27 01:50:21;;;;;;;9.73;6.22;;;-1.60;74.10;;;;;;4981324;28;20042;-66
2020/12/27 01:52:47;;;;;;;9.07;5.88;;;-1.60;74.30;;;;;;4981640;28;20107;-68
2020/12/27 01:55:14;;;;;;;9.90;5.75;;;-1.50;74.40;;;;;;4981084;28;20043;-65
2020/12/27 01:58:19;;;;;;;12.48;6.05;;;-1.60;74.30;;;;;;4981727;28;20041;-68
2020/12/27 02:00:46;;;;;;;10.73;5.78;;;-1.60;74.80;;;;;;4984095;28;20026;-67
2020/12/27 02:03:13;;;;;;;8.65;5.60;;;-1.60;74.50;;;;;;4977759;28;20162;-67
2020/12/27 02:05:42;;;;;;;10.90;5.80;;;-1.50;75.50;;;;;;4982255;28;20064;-68
2020/12/27 02:08:07;;;;;;;8.43;5.28;;;-1.50;74.60;;;;;;4981960;28;20069;-68
2020/12/27 02:10:33;;;;;;;9.10;5.03;;;-1.50;74.60;;;;;;4979470;28;20054;-68
2020/12/27 02:13:01;;;;;;;9.27;5.43;;;-1.50;74.60;;;;;;4981851;28;20430;-68
2020/12/27 02:15:27;;;;;;;8.77;4.80;;;-1.50;74.70;;;;;;4980132;28;20688;-67
2020/12/27 02:17:52;;;;;;;9.15;5.07;;;-1.50;74.60;;;;;;4981748;28;20041;-66
2020/12/27 02:20:19;;;;;;;6.68;4.35;;;-1.50;74.60;;;;;;4981579;28;20041;-67
2020/12/27 02:22:45;;;;;;;7.78;4.88;;;-1.50;74.60;;;;;;4982224;28;20027;-68
2020/12/27 02:25:11;;;;;;;7.88;4.78;;;-1.50;74.60;;;;;;4980223;28;20026;-68
2020/12/27 02:27:36;;;;;;;8.32;4.65;;;-1.40;74.60;;;;;;4981229;28;20068;-68
2020/12/27 02:30:05;;;;;;;6.47;4.88;;;-1.50;74.50;;;;;;4981941;28;20046;-67
2020/12/27 02:32:31;;;;;;;6.93;4.47;;;-1.40;74.60;;;;;;4980134;28;20034;-67
2020/12/27 02:34:56;;;;;;;9.27;4.57;;;-1.40;74.50;;;;;;4982000;28;20431;-68
2020/12/27 02:37:22;;;;;;;7.13;4.15;;;-1.40;75.40;;;;;;4980918;28;20117;-67
2020/12/27 02:39:47;;;;;;;6.88;4.15;;;-1.40;74.60;;;;;;4981292;28;20046;-67
2020/12/27 02:42:13;;;;;;;7.40;4.90;;;-1.40;74.60;;;;;;4979929;28;20500;-67
2020/12/27 02:44:40;;;;;;;5.00;4.07;;;-1.40;74.60;;;;;;4980958;28;20046;-67
2020/12/27 02:47:07;;;;;;;6.38;4.32;;;-1.40;74.60;;;;;;4980803;28;20042;-67
2020/12/27 02:49:33;;;;;;;6.32;4.13;;;-1.40;74.60;;;;;;4980856;28;20043;-68
2020/12/27 02:51:58;;;;;;;7.00;4.28;;;-1.40;74.50;;;;;;4981387;28;20046;-67
2020/12/27 02:54:24;;;;;;;4.97;3.97;;;-1.40;74.50;;;;;;4981071;28;20030;-66
2020/12/27 02:56:49;;;;;;;6.43;4.43;;;-1.30;74.60;;;;;;4980241;28;20113;-67
2020/12/27 02:59:15;;;;;;;6.70;4.40;;;-1.30;74.50;;;;;;4981334;28;20658;-67
2020/12/27 03:01:40;;;;;;;6.30;4.00;;;-1.30;74.50;;;;;;4980142;28;20188;-67
2020/12/27 03:04:06;;;;;;;6.93;4.13;;;-1.30;74.60;;;;;;4980730;28;20038;-66
2020/12/27 03:06:32;;;;;;;14.07;4.53;;;-1.30;74.60;;;;;;4980243;28;20093;-67
2020/12/27 03:08:57;;;;;;;6.50;4.05;;;-1.30;74.60;;;;;;4979712;28;20043;-67
2020/12/27 03:11:26;;;;;;;5.28;4.03;;;-1.20;74.70;;;;;;4980288;28;20034;-68
2020/12/27 03:13:53;;;;;;;7.90;4.55;;;-1.30;74.70;;;;;;4980641;28;20034;-67
2020/12/27 03:16:19;;;;;;;7.13;4.45;;;-1.30;74.70;;;;;;4979446;28;20073;-67
2020/12/27 03:18:45;;;;;;;6.30;4.15;;;-1.30;74.80;;;;;;4979590;28;20058;-67
2020/12/27 03:21:11;;;;;;;9.18;4.40;;;-1.30;74.80;;;;;;4980300;28;20489;-67
2020/12/27 03:23:36;;;;;;;6.38;4.30;;;-1.30;74.80;;;;;;4979488;28;20030;-67
2020/12/27 03:26:02;;;;;;;6.65;4.55;;;-1.30;74.90;;;;;;4981117;28;20057;-67
2020/12/27 03:28:28;;;;;;;4.75;3.72;;;-1.30;74.90;;;;;;4980507;28;20122;-67
2020/12/27 03:30:53;;;;;;;7.60;5.00;;;-1.30;75.00;;;;;;4979747;28;20041;-67
2020/12/27 03:33:19;;;;;;;9.50;4.70;;;-1.30;75.00;;;;;;4979879;28;20038;-68
2020/12/27 03:35:45;;;;;;;6.03;4.57;;;-1.30;75.90;;;;;;4980662;28;20042;-67
2020/12/27 03:38:10;;;;;;;7.15;4.72;;;-1.30;75.00;;;;;;4980006;28;20122;-67
2020/12/27 03:40:36;;;;;;;7.57;4.15;;;-1.30;75.10;;;;;;4979354;28;20085;-67
2020/12/27 03:43:02;;;;;;;6.70;4.25;;;-1.30;75.10;;;;;;4979325;28;20486;-67
2020/12/27 03:45:27;;;;;;;8.02;5.05;;;-1.30;75.00;;;;;;4978343;28;20042;-66
2020/12/27 03:47:54;;;;;;;5.78;3.88;;;-1.30;75.20;;;;;;4979364;28;20122;-68
2020/12/27 03:50:22;;;;;;;7.40;4.40;;;-1.30;75.20;;;;;;4980318;28;20034;-67
2020/12/27 03:52:48;;;;;;;8.30;4.97;;;-1.30;75.30;;;;;;4979861;28;20114;-67
2020/12/27 03:55:14;;;;;;;10.82;4.78;;;-1.30;75.30;;;;;;4979539;28;20122;-67
2020/12/27 03:57:39;;;;;;;7.03;4.45;;;-1.30;75.30;;;;;;4979691;28;20431;-67
2020/12/27 04:00:05;;;;;;;7.32;5.00;;;-1.30;75.40;;;;;;4981237;28;20516;-67
2020/12/27 04:02:30;;;;;;;7.40;4.70;;;-1.30;75.40;;;;;;4978814;28;20037;-68
2020/12/27 04:04:56;;;;;;;6.03;4.13;;;-1.30;75.50;;;;;;4979784;28;20505;-67
2020/12/27 04:07:22;;;;;;;8.38;4.85;;;-1.30;75.30;;;;;;4979783;28;20037;-67
2020/12/27 04:09:48;;;;;;;7.18;4.38;;;-1.30;75.40;;;;;;4979738;28;20042;-67
2020/12/27 04:12:14;;;;;;;6.93;4.45;;;-1.30;75.50;;;;;;4978517;28;20073;-67
2020/12/27 04:14:40;;;;;;;7.45;4.40;;;-1.30;75.40;;;;;;4978004;28;20121;-67
2020/12/27 04:17:06;;;;;;;6.72;4.32;;;-1.30;75.30;;;;;;4979121;28;20438;-67
2020/12/27 04:19:32;;;;;;;5.95;4.13;;;-1.30;75.30;;;;;;4979773;28;20106;-67
2020/12/27 04:21:57;;;;;;;6.93;4.18;;;-1.30;75.30;;;;;;4980140;28;20043;-67
2020/12/27 04:24:23;;;;;;;6.20;4.47;;;-1.30;75.30;;;;;;4979271;28;20383;-67
2020/12/27 04:26:49;;;;;;;6.93;4.68;;;-1.30;75.30;;;;;;4978574;28;20126;-67
2020/12/27 04:29:14;;;;;;;7.70;4.57;;;-1.30;75.30;;;;;;4978861;28;20085;-67
2020/12/27 04:31:40;;;;;;;7.43;4.60;;;-1.30;75.30;;;;;;4979737;28;20725;-67
2020/12/27 04:34:05;;;;;;;7.47;4.47;;;-1.30;75.30;;;;;;4978037;28;20043;-67
2020/12/27 04:36:31;;;;;;;5.68;4.55;;;-1.30;75.30;;;;;;4980023;28;20038;-67
2020/12/27 04:38:58;;;;;;;6.25;4.28;;;-1.30;75.30;;;;;;4979434;28;20133;-67
2020/12/27 04:41:24;;;;;;;5.80;4.40;;;-1.30;75.20;;;;;;4979042;28;20451;-67
2020/12/27 04:43:50;;;;;;;7.05;4.45;;;-1.20;75.20;;;;;;4979019;28;20035;-67
2020/12/27 04:46:16;;;;;;;6.18;4.25;;;-1.30;75.00;;;;;;4978844;28;20073;-67
2020/12/27 04:48:44;;;;;;;8.50;4.63;;;-1.20;75.00;;;;;;4977711;28;20097;-67
2020/12/27 04:51:11;;;;;;;7.50;4.53;;;-1.20;75.00;;;;;;4975768;28;20901;-67
2020/12/27 04:53:38;;;;;;;6.13;4.32;;;-1.20;74.90;;;;;;4978701;28;20046;-67
2020/12/27 04:56:05;;;;;;;6.07;3.95;;;-1.20;74.80;;;;;;4978542;28;20046;-67
2020/12/27 04:58:31;;;;;;;9.63;5.07;;;-1.20;74.80;;;;;;4978048;28;20042;-67
2020/12/27 05:00:58;;;;;;;8.20;4.50;;;-1.20;74.80;;;;;;4979427;28;20037;-67
2020/12/27 05:03:24;;;;;;;6.95;5.00;;;-1.30;74.60;;;;;;4979715;28;20054;-67
2020/12/27 05:05:51;;;;;;;7.53;4.47;;;-1.20;74.70;;;;;;4979039;28;20047;-67
2020/12/27 05:08:17;;;;;;;6.72;4.43;;;-1.30;74.70;;;;;;4978874;28;20526;-67
2020/12/27 05:10:44;;;;;;;7.13;4.50;;;-1.30;74.70;;;;;;4977972;28;21546;-68
2020/12/27 05:13:15;;;;;;;7.70;4.65;;;-1.20;74.70;;;;;;4977767;28;20113;-67
2020/12/27 05:15:41;;;;;;;5.43;3.80;;;-1.20;74.60;;;;;;4979512;28;20035;-67
2020/12/27 05:18:08;;;;;;;7.78;4.22;;;-1.30;74.50;;;;;;4979009;28;20064;-67
2020/12/27 05:20:42;;;;;;;6.72;4.05;;;-1.30;74.50;;;;;;4978984;28;20042;-68
2020/12/27 05:23:09;;;;;;;10.90;6.80;;;-1.20;74.50;;;;;;4980704;28;20038;-67
2020/12/27 05:25:40;;;;;;;5.50;3.97;;;-1.30;74.50;;;;;;4982392;28;20093;-68
2020/12/27 05:28:06;;;;;;;7.97;4.47;;;-1.20;74.60;;;;;;4982456;28;20043;-67
2020/12/27 05:30:33;;;;;;;5.80;4.05;;;-1.20;74.60;;;;;;4980477;28;20026;-67
2020/12/27 05:32:59;;;;;;;6.90;4.47;;;-1.20;74.60;;;;;;4982367;28;20062;-67
2020/12/27 05:35:24;;;;;;;6.25;4.10;;;-1.20;74.60;;;;;;4982265;28;20104;-67
2020/12/27 05:37:51;;;;;;;7.15;5.00;;;-1.20;74.70;;;;;;4981092;28;20114;-67
2020/12/27 05:40:18;;;;;;;5.53;4.00;;;-1.20;74.70;;;;;;4983068;28;20078;-67
2020/12/27 05:42:44;;;;;;;5.13;3.83;;;-1.20;74.70;;;;;;4981141;28;20041;-67
2020/12/27 05:45:20;;;;;;;5.00;3.53;;;-1.20;74.80;;;;;;4982113;28;20033;-67
2020/12/27 05:47:47;;;;;;;4.30;3.22;;;-1.20;74.80;;;;;;4982172;28;20501;-67
2020/12/27 05:50:19;;;;;;;5.43;3.40;;;-1.20;74.80;;;;;;4981059;28;20126;-67
2020/12/27 05:52:49;;;;;;;5.72;4.07;;;-1.20;74.80;;;;;;4981555;28;20030;-67
2020/12/27 05:55:19;;;;;;;5.15;3.67;;;-1.20;74.80;;;;;;4981731;28;20043;-67
2020/12/27 05:57:52;;;;;;;8.75;4.10;;;-1.20;74.70;;;;;;4982037;28;20054;-67
2020/12/27 06:00:23;;;;;;;5.10;3.90;;;-1.20;74.80;;;;;;4982483;28;20057;-67
2020/12/27 06:03:01;;;;;;;4.80;3.45;;;-1.20;74.80;;;;;;4979678;28;20125;-67
2020/12/27 06:05:54;;;;;;;5.47;3.75;;;-1.20;74.80;;;;;;4981958;28;20039;-67
2020/12/27 06:08:29;;;;;;;6.32;3.83;;;-1.20;74.80;;;;;;4982246;28;20057;-67
2020/12/27 06:11:00;;;;;;;6.22;3.88;;;-1.20;74.80;;;;;;4979444;28;20027;-67
2020/12/27 06:13:29;;;;;;;11.90;5.25;;;-1.20;74.80;;;;;;4980960;28;20038;-66
2020/12/27 06:15:59;;;;;;;12.50;5.10;;;-1.20;74.80;;;;;;4980292;28;20034;-67
2020/12/27 06:18:29;;;;;;;10.02;4.82;;;-1.20;74.80;;;;;;4981512;28;20037;-67
2020/12/27 06:21:03;;;;;;;7.68;4.00;;;-1.20;74.90;;;;;;4981999;28;20035;-67
2020/12/27 06:23:31;;;;;;;5.45;3.50;;;-1.20;74.80;;;;;;4980271;28;20050;-67
2020/12/27 06:26:00;;;;;;;7.68;3.58;;;-1.20;74.70;;;;;;4981877;28;20039;-67
2020/12/27 06:28:27;;;;;;;4.88;3.33;;;-1.20;74.80;;;;;;4981429;28;20042;-68
2020/12/27 06:30:56;;;;;;;5.18;3.60;;;-1.20;74.70;;;;;;4981379;28;20054;-67
2020/12/27 06:33:25;;;;;;;5.63;3.80;;;-1.20;74.80;;;;;;4980102;28;20031;-68
2020/12/27 06:35:51;;;;;;;5.22;3.63;;;-1.20;74.80;;;;;;4981890;28;20035;-67
2020/12/27 06:38:22;;;;;;;8.43;4.88;;;-1.20;74.70;;;;;;4985829;28;20038;-67
2020/12/27 06:40:58;;;;;;;6.45;4.35;;;-1.20;75.50;;;;;;4981143;28;20034;-68
2020/12/27 06:43:24;;;;;;;4.97;3.70;;;-1.10;74.70;;;;;;4981297;28;20058;-67
2020/12/27 06:45:51;;;;;;;6.18;3.58;;;-1.10;74.70;;;;;;4981735;28;20514;-68
2020/12/27 06:48:33;;;;;;;6.35;4.15;;;-1.10;74.60;;;;;;4981012;28;20039;-67
2020/12/27 06:50:59;;;;;;;4.88;3.88;;;-1.10;74.60;;;;;;4996102;28;20046;-67
2020/12/27 06:53:42;;;;;;;5.28;4.32;;;-1.10;74.60;;;;;;4978813;28;20085;-68
2020/12/27 06:56:13;;;;;;;5.43;3.28;;;-1.10;74.60;;;;;;4980095;28;20422;-67
2020/12/27 06:58:40;;;;;;;5.15;3.75;;;-1.10;74.50;;;;;;4979328;28;20538;-67
2020/12/27 07:01:14;;;;;;;5.15;3.60;;;-1.10;74.50;;;;;;4979503;28;20061;-67
2020/12/27 07:03:42;;;;;;;5.22;3.42;;;-1.10;74.50;;;;;;4974331;28;20125;-68
2020/12/27 07:06:24;;;;;;;3.50;2.75;;;-1.10;74.40;;;;;;4977012;28;20031;-68
2020/12/27 07:08:50;;;;;;;4.55;3.33;;;-1.10;74.40;;;;;;4978823;28;20046;-68
2020/12/27 07:11:18;;;;;;;4.78;3.58;;;-1.10;74.40;;;;;;4979986;28;20031;-68
2020/12/27 07:13:48;;;;;;;4.88;3.35;;;-1.10;74.30;;;;;;4980392;28;20436;-68
2020/12/27 07:16:16;;;;;;;6.55;4.38;;;-1.00;74.30;;;;;;4980926;28;20466;-68
2020/12/27 07:18:46;;;;;;;4.70;3.33;;;-1.10;74.30;;;;;;4975285;28;20126;-68
2020/12/27 07:21:16;;;;;;;4.93;3.22;;;-1.10;74.30;;;;;;4974156;28;20034;-67
2020/12/27 07:23:47;;;;;;;6.32;3.53;;;-1.10;74.30;;;;;;4978284;28;20066;-67
2020/12/27 07:26:13;;;;;;;7.07;3.50;;;-1.10;74.10;;;;;;4980820;28;20030;-67
2020/12/27 07:28:39;;;;;;;6.95;3.90;;;-1.10;74.10;;;;;;4980764;28;20532;-67
2020/12/27 07:31:05;;;;;;;6.00;3.90;;;-1.10;74.20;;;;;;4978637;28;20030;-68
2020/12/27 07:33:36;;;;;;;3.63;3.08;;;-1.10;74.30;;;;;;4976397;28;20031;-67
2020/12/27 07:36:09;;;;;;;6.25;3.45;;;-1.10;74.30;;;;;;4979789;28;20027;-67
2020/12/27 07:38:53;;;;;;;4.57;3.65;;;-1.10;74.30;;;;;;4979193;28;20046;-67
2020/12/27 07:41:42;;;;;;;5.03;3.45;;;-1.10;74.30;;;;;;4980626;28;20034;-67
2020/12/27 07:44:15;;;;;;;5.57;3.90;;;-1.10;74.30;;;;;;4978627;28;20038;-67
2020/12/27 07:46:42;;;;;;;5.00;3.42;;;-1.10;74.40;;;;;;4978162;28;20042;-67
2020/12/27 07:49:12;;;;;;;4.05;3.38;;;-1.10;74.50;;;;;;4977717;28;20045;-68
2020/12/27 07:51:38;;;;;;;8.07;3.35;;;-1.20;74.50;;;;;;4978757;28;20039;-67
2020/12/27 07:54:04;;;;;;;4.82;3.45;;;-1.10;74.50;;;;;;4977323;28;20039;-67
2020/12/27 07:56:31;;;;;;;4.53;3.22;;;-1.10;74.50;;;;;;4980461;28;20038;-68
2020/12/27 07:59:04;;;;;;;4.20;3.00;;;-1.10;74.50;;;;;;4976646;28;20034;-68
2020/12/27 08:01:32;;;;;;;4.47;3.40;;;-1.10;74.50;;;;;;4991429;28;20058;-68
2020/12/27 08:04:02;;;;;;;3.78;2.95;;;-1.10;74.50;;;;;;4978970;28;20565;-67
2020/12/27 08:06:30;;;;;;;3.85;2.75;;;-1.10;74.50;;;;;;4992103;28;20039;-68
2020/12/27 08:09:24;;;;;;;4.38;3.42;;;-1.00;74.60;;;;;;4978639;28;20051;-67
2020/12/27 08:11:50;;;;;;;4.10;3.00;;;-1.00;74.50;;;;;;4973164;28;20070;-67
2020/12/27 08:14:16;;;;;;;4.53;3.15;;;-1.00;74.50;;;;;;4977473;28;20038;-67
2020/12/27 08:16:43;;;;;;;3.83;3.13;;;-1.00;74.30;;;;;;4977021;28;20039;-67
2020/12/27 08:19:10;;;;;;;4.60;3.40;;;-0.90;74.30;;;;;;4977990;28;20746;-68
2020/12/27 08:21:37;;;;;;;4.53;3.38;;;-0.90;74.30;;;;;;4979697;28;20409;-67
2020/12/27 08:24:05;;;;;;;5.05;3.30;;;-0.90;74.30;;;;;;4979437;28;20108;-68
2020/12/27 08:26:34;;;;;;;4.13;3.35;;;-0.80;74.30;;;;;;4978356;28;20133;-69
2020/12/27 08:29:09;;;;;;;3.90;2.92;;;-0.80;74.30;;;;;;4977529;28;20443;-69
2020/12/27 08:31:34;;;;;;;5.00;3.28;;;-0.80;74.20;;;;;;4980057;28;20031;-68
2020/12/27 08:34:11;;;;;;;4.60;3.20;;;-0.70;74.20;;;;;;4979047;28;20038;-68
2020/12/27 08:36:38;;;;;;;4.82;3.05;;;-0.70;74.10;;;;;;4978565;28;20046;-69
2020/12/27 08:39:56;;;;;;;4.57;3.30;;;-0.70;74.10;;;;;;4976434;28;20030;-69
2020/12/27 08:42:41;;;;;;;5.15;3.55;;;-0.60;74.10;;;;;;4963034;28;20069;-69
2020/12/27 08:45:19;;;;;;;6.20;3.50;;;-0.60;74.10;;;;;;4963490;28;20034;-68
2020/12/27 08:48:07;;;;;;;6.15;3.95;;;-0.60;74.10;;;;;;4974657;28;20042;-69
2020/12/27 08:50:38;;;;;;;5.45;3.60;;;-0.50;74.10;;;;;;4977103;28;20043;-69
2020/12/27 08:53:11;;;;;;;6.95;3.72;;;-0.50;74.10;;;;;;4978230;28;20035;-70
2020/12/27 08:55:37;;;;;;;4.03;3.33;;;-0.50;74.10;;;;;;4976546;28;20888;-69
2020/12/27 08:58:03;;;;;;;5.38;3.30;;;-0.50;74.90;;;;;;4981338;28;20113;-69
2020/12/27 09:00:33;;;;;;;4.30;3.30;;;-0.40;74.10;;;;;;4978428;28;20588;-69
2020/12/27 09:03:00;;;;;;;9.15;3.53;;;-0.40;74.00;;;;;;4981633;28;20785;-69
2020/12/27 09:05:35;;;;;;;8.60;5.63;;;-0.40;74.10;;;;;;4981370;28;20042;-68
2020/12/27 09:08:13;;;;;;;12.07;6.70;;;-0.40;74.00;;;;;;4982698;28;20105;-69
2020/12/27 09:10:40;;;;;;;7.07;4.72;;;-0.40;74.00;;;;;;4982209;28;20034;-69
2020/12/27 09:13:07;;;;;;;5.13;3.53;;;-0.30;74.10;;;;;;4981994;28;20110;-69
2020/12/27 09:15:35;;;;;;;10.18;5.90;;;-0.30;74.90;;;;;;4982814;28;20046;-69
2020/12/27 09:18:09;;;;;;;7.50;4.80;;;-0.20;74.10;;;;;;4983238;28;20105;-67
2020/12/27 09:20:37;;;;;;;4.63;3.30;;;-0.20;74.00;;;;;;4998375;28;20514;-67
2020/12/27 09:23:13;;;;;;;8.07;5.13;;;-0.10;74.00;;;;;;4980914;28;20277;-67
2020/12/27 09:25:39;;;;;;;5.57;3.33;;;-0.10;73.60;;;;;;4981510;28;20122;-68
2020/12/27 09:28:12;;;;;;;5.32;3.78;;;-0.10;73.60;;;;;;4982034;28;20038;-68
2020/12/27 09:30:38;;;;;;;6.03;4.10;;;-0.10;73.40;;;;;;4980870;28;20514;-67
2020/12/27 09:33:03;;;;;;;7.25;3.80;;;-0.10;73.60;;;;;;4981437;28;20042;-67
2020/12/27 09:35:29;;;;;;;7.65;4.15;;;0.00;73.60;;;;;;4980816;28;20038;-67
2020/12/27 09:37:55;;;;;;;6.85;4.70;;;0.20;73.80;;;;;;4981315;28;20038;-67
2020/12/27 09:40:21;;;;;;;10.05;5.82;;;0.00;73.60;;;;;;4980684;28;20030;-67
2020/12/27 09:42:47;;;;;;;6.75;4.60;;;0.00;73.30;;;;;;4981651;28;20375;-67
2020/12/27 09:45:22;;;;;;;6.53;5.05;;;0.10;73.40;;;;;;4980290;28;20876;-67
2020/12/27 09:47:56;;;;;;;6.60;4.80;;;0.10;73.20;;;;;;4981821;28;20027;-67
2020/12/27 09:50:26;;;;;;;6.75;4.15;;;0.10;73.20;;;;;;4978607;28;20049;-68
2020/12/27 09:52:51;;;;;;;9.23;5.70;;;0.10;73.10;;;;;;4979970;28;20030;-68
2020/12/27 09:55:17;;;;;;;7.93;5.78;;;0.20;73.20;;;;;;4977460;28;20548;-67
2020/12/27 09:57:42;;;;;;;8.23;4.95;;;0.30;73.20;;;;;;4977035;28;20030;-68
2020/12/27 10:00:09;;;;;;;6.53;4.45;;;0.30;73.30;;;;;;4977048;28;20117;-67
2020/12/27 10:02:34;;;;;;;5.43;3.72;;;0.30;73.10;;;;;;4979953;28;20038;-67
2020/12/27 10:05:00;;;;;;;7.28;4.20;;;0.40;73.10;;;;;;4979744;28;20039;-67
2020/12/27 10:07:26;;;;;;;6.93;4.63;;;0.40;72.70;;;;;;4981747;28;20510;-67
2020/12/27 10:09:52;;;;;;;9.95;5.88;;;0.40;72.60;;;;;;4980829;28;20042;-67
2020/12/27 10:12:19;;;;;;;5.07;3.97;;;0.40;72.50;;;;;;4980914;28;20031;-68
2020/12/27 10:14:44;;;;;;;5.22;3.67;;;0.50;72.60;;;;;;4979759;28;20045;-68
2020/12/27 10:17:10;;;;;;;3.50;3.15;;;0.50;72.70;;;;;;4981192;28;20034;-67
2020/12/27 10:19:36;;;;;;;6.18;3.33;;;0.50;72.70;;;;;;4980137;28;20073;-67
2020/12/27 10:22:03;;;;;;;5.65;3.42;;;0.60;72.70;;;;;;4980258;28;20110;-69
2020/12/27 10:24:32;;;;;;;7.18;4.70;;;0.60;72.60;;;;;;4980184;28;20046;-68
2020/12/27 10:26:58;;;;;;;6.82;4.15;;;0.60;72.60;;;;;;4980687;28;20035;-68
2020/12/27 10:29:24;;;;;;;6.78;4.57;;;0.60;72.20;;;;;;4980309;28;20034;-67
2020/12/27 10:31:54;;;;;;;7.93;4.95;;;0.60;72.20;;;;;;4980771;28;20074;-67
2020/12/27 10:34:21;;;;;;;5.70;3.78;;;0.70;72.20;;;;;;4985403;28;20034;-69
2020/12/27 10:36:48;;;;;;;6.18;4.00;;;0.70;72.40;;;;;;4981048;28;20030;-68
2020/12/27 10:39:14;;;;;;;9.90;6.65;;;0.70;72.20;;;;;;4981474;28;20100;-67
2020/12/27 10:41:44;;;;;;;6.15;4.30;;;0.70;72.00;;;;;;4979742;28;20049;-67
2020/12/27 10:44:10;;;;;;;7.65;3.83;;;0.80;71.90;;;;;;4980117;28;20039;-67
2020/12/27 10:46:36;;;;;;;6.85;3.90;;;0.80;71.90;;;;;;4987429;28;20508;-69
2020/12/27 10:49:02;;;;;;;12.18;5.13;;;0.80;71.90;;;;;;4978004;28;20522;-69
2020/12/27 10:51:32;;;;;;;14.85;6.72;;;0.80;71.80;;;;;;4981049;28;20459;-69
2020/12/27 10:53:58;;;;;;;7.40;4.00;;;0.90;72.70;;;;;;4978748;28;20046;-70
2020/12/27 10:56:24;;;;;;;9.70;4.55;;;0.90;71.60;;;;;;4991403;28;20038;-70
2020/12/27 10:58:50;;;;;;;40.00;16.30;;;0.90;71.50;;;;;;4980569;28;20477;-71
2020/12/27 11:01:15;;;;;;;16.00;8.13;;;0.90;71.60;;;;;;4979814;28;20113;-70
2020/12/27 11:03:41;;;;;;;8.52;5.15;;;1.00;71.50;;;;;;4978749;28;20039;-71
2020/12/27 11:06:06;;;;;;;5.30;3.50;;;1.10;71.50;;;;;;4979919;28;20031;-69
2020/12/27 11:08:33;;;;;;;4.72;3.33;;;1.10;71.50;;;;;;4978850;28;20470;-70
2020/12/27 11:11:00;;;;;;;7.15;4.28;;;1.20;71.50;;;;;;4979956;28;20027;-72
2020/12/27 11:13:26;;;;;;;5.47;3.83;;;1.20;71.50;;;;;;4980250;28;20486;-71
2020/12/27 11:15:51;;;;;;;4.32;3.28;;;1.30;71.20;;;;;;4980760;28;20043;-70
2020/12/27 11:18:17;;;;;;;4.47;3.15;;;1.30;71.30;;;;;;4980441;28;20494;-71
2020/12/27 11:20:43;;;;;;;5.35;3.60;;;1.40;71.40;;;;;;4979692;28;20129;-70
2020/12/27 11:23:08;;;;;;;7.35;4.07;;;1.40;71.20;;;;;;4980717;28;21207;-70
2020/12/27 11:25:34;;;;;;;6.40;3.67;;;1.40;70.80;;;;;;4980417;28;20376;-70
2020/12/27 11:28:00;;;;;;;5.43;3.25;;;1.50;70.70;;;;;;4980052;28;20121;-70
2020/12/27 11:30:25;;;;;;;5.07;3.50;;;1.50;70.70;;;;;;4979679;28;20133;-70
2020/12/27 11:32:51;;;;;;;6.40;4.45;;;1.50;70.70;;;;;;4980069;28;20041;-69
2020/12/27 11:35:17;;;;;;;7.93;5.20;;;1.50;70.60;;;;;;4979369;28;20113;-70
2020/12/27 11:37:42;;;;;;;9.55;4.35;;;1.60;70.70;;;;;;4978610;28;20585;-70
2020/12/27 11:40:08;;;;;;;6.10;4.50;;;1.60;70.30;;;;;;4979807;28;20133;-72
2020/12/27 11:42:35;;;;;;;4.88;3.08;;;1.60;70.30;;;;;;4979098;28;20582;-70
2020/12/27 11:45:01;;;;;;;3.63;3.22;;;1.70;70.50;;;;;;4977022;28;20416;-70
2020/12/27 11:47:27;;;;;;;4.85;3.60;;;1.70;70.50;;;;;;4980265;28;20042;-70
2020/12/27 11:49:52;;;;;;;5.70;3.63;;;1.70;70.00;;;;;;4980684;28;20077;-71
2020/12/27 11:52:18;;;;;;;4.95;3.40;;;1.70;70.20;;;;;;4980820;28;20077;-69
2020/12/27 11:54:44;;;;;;;6.35;4.30;;;1.70;70.10;;;;;;4980083;28;20132;-69
2020/12/27 11:57:09;;;;;;;7.68;4.25;;;1.70;69.90;;;;;;4985934;28;20062;-70
2020/12/27 11:59:35;;;;;;;5.85;4.13;;;1.70;69.50;;;;;;4980209;28;20118;-71
2020/12/27 12:02:00;;;;;;;6.10;3.47;;;1.70;69.80;;;;;;4980932;28;20026;-69
2020/12/27 12:04:26;;;;;;;5.80;3.85;;;1.80;70.00;;;;;;4980567;28;20410;-70
2020/12/27 12:06:52;;;;;;;5.40;3.47;;;1.80;70.00;;;;;;4980922;28;20494;-69
2020/12/27 12:09:18;;;;;;;3.22;2.70;;;1.80;69.90;;;;;;4979269;28;20492;-71
2020/12/27 12:11:43;;;;;;;4.70;3.00;;;1.90;69.90;;;;;;4981027;28;20038;-72
2020/12/27 12:14:10;;;;;;;6.03;3.58;;;1.90;69.80;;;;;;4980209;28;20038;-70
2020/12/27 12:16:35;;;;;;;4.63;2.95;;;1.90;70.00;;;;;;4980317;28;20045;-70
2020/12/27 12:19:04;;;;;;;3.92;2.83;;;1.90;69.80;;;;;;4980167;28;20042;-70
2020/12/27 12:21:31;;;;;;;4.38;2.88;;;2.00;69.50;;;;;;4980904;28;20473;-71
2020/12/27 12:23:59;;;;;;;4.35;2.83;;;2.00;69.20;;;;;;4979286;28;20038;-69
2020/12/27 12:26:27;;;;;;;3.85;3.00;;;2.00;69.20;;;;;;4979398;28;20033;-70
2020/12/27 12:28:52;;;;;;;4.05;2.90;;;1.90;69.10;;;;;;4995044;28;20088;-71
2020/12/27 12:31:18;;;;;;;4.63;2.80;;;1.90;69.10;;;;;;4981898;28;20569;-70
2020/12/27 12:33:45;;;;;;;5.00;3.33;;;2.00;69.00;;;;;;4979035;28;20039;-69
2020/12/27 12:36:23;;;;;;;4.43;3.25;;;1.90;68.70;;;;;;4981242;28;20033;-69
2020/12/27 12:38:50;;;;;;;5.22;3.88;;;1.90;67.70;;;;;;4978961;28;20034;-71
2020/12/27 12:41:21;;;;;;;5.10;3.38;;;1.90;68.40;;;;;;4981088;28;20026;-70
2020/12/27 12:43:47;;;;;;;4.53;3.10;;;2.00;68.60;;;;;;4979572;28;20053;-70
2020/12/27 12:46:13;;;;;;;6.35;4.18;;;2.00;68.40;;;;;;4979945;28;20497;-70
2020/12/27 12:48:39;;;;;;;5.63;3.50;;;2.00;68.30;;;;;;4979277;28;20133;-70
2020/12/27 12:51:05;;;;;;;6.03;4.00;;;2.00;68.20;;;;;;4979127;28;20038;-71